Terminal Aerodrome Forecast
Issued by NWS

Home | Current Version | Previous Version | Text Only | Print | Product List | Glossary On
Versions: 1 2 3 4 5 6 7 8 9 10 11 12 13 14 15 16 17 18
561
FTUS43 KBIS 230527
TAFJMS
TAF
KJMS 230527Z 2306/2406 14011KT P6SM SCT250
     FM231400 17008KT P6SM OVC090
     FM231900 13007KT P6SM BKN050
     FM232100 07006KT P6SM OVC025
     FM232300 04006KT P6SM VCSH OVC015
     FM240200 36006KT P6SM OVC025=

USA.gov is the U.S. government's official web portal to all federal, state and local government web resources and services.